Main page
METAR-TAF:

METAR-TAF

Airports :

Lahore, Pakistan

Allama Iqbal International Airport

latitude: 31-31N, longitude: 074-24E, elevation: 216 m

Current weather observation

The report was made 2 hours and 8 minutes ago, at 11:55 UTC
Wind 4 kt from the West/Northwest
Temperature 33°C
Humidity 32%
Pressure 1005 hPa
Visibility: 4000 m
haze

METAR: OPLA 211155Z 30004KT 4000 HZ NSC 33/14 Q1005 A29.68 NOSIG

Time: 19:03 (14:03 UTC)

Forecast

The report was made 4 hours and 18 minutes ago, at 09:45 UTC
Forecast valid from 21 at 12 UTC to 22 at 18 UTC
Wind 3 kt from the West/Northwest
Visibility: 4000 m
smoke
Becoming
from 22 at 01 UTC to 22 at 04 UTC
Visibility: 1500 m
smoke
Becoming
from 22 at 04 UTC to 22 at 06 UTC
Visibility: 3000 m
smoke
From UTC
Wind 7 kt from the North/Northwest
Visibility: 5000 m
haze

TAF: OPLA 210945Z 2112/2218 29003KT 4000 FU NSC TX34/2210Z TN18/2201Z BECMG 2201/2204 1500 FU BECMG 2204/2206 3000 FU FM 220400 33007KT 5000 HZ NSC

Weather observations and forecasts of more than 4000 airports (METAR and TAF reports).

The available stations are represented by yellow and red dots on the map.

Hover mouse over dot to see the name of the station.

Then click to see weather observations and forecasts.

To change the map : click on the green buttons with a black cross to zoom in, on the green button with a dash to zoom out, or on the green arrows for adjacent maps.


METAR-TAF: